createdAt,value
2023-02-05T00:00:37.087Z,-0.63
2023-02-05T00:03:29.517Z,-0.69
2023-02-05T00:06:02.052Z,-0.72
2023-02-05T00:08:35.447Z,-0.75
2023-02-05T00:11:09.782Z,-0.79
2023-02-05T00:13:45.005Z,-0.79
2023-02-05T00:16:19.918Z,-0.80
2023-02-05T00:18:52.729Z,-0.80
2023-02-05T00:21:25.967Z,-0.80
2023-02-05T00:23:58.372Z,-0.80
2023-02-05T00:26:30.967Z,-0.84
2023-02-05T00:29:03.478Z,-0.85
2023-02-05T00:31:36.175Z,-0.90
2023-02-05T00:34:08.828Z,-0.95
2023-02-05T00:36:41.405Z,-0.98
2023-02-05T00:39:14.831Z,-0.99
2023-02-05T00:41:47.354Z,-1.00
2023-02-05T00:44:19.804Z,-1.01
2023-02-05T00:46:52.283Z,-1.02
2023-02-05T00:49:24.701Z,-1.00
2023-02-05T00:51:57.172Z,-1.02
2023-02-05T00:54:29.681Z,-0.98
2023-02-05T00:57:02.105Z,-0.98
2023-02-05T00:59:34.671Z,-0.99
2023-02-05T01:02:07.286Z,-1.01
2023-02-05T01:04:40.121Z,-1.05
2023-02-05T01:07:12.621Z,-1.08
2023-02-05T01:09:45.970Z,-1.09
2023-02-05T01:12:18.497Z,-1.09
2023-02-05T01:14:51.179Z,-1.09
2023-02-05T01:17:24.150Z,-1.07
2023-02-05T01:19:57.030Z,-1.09
2023-02-05T01:22:29.807Z,-1.12
2023-02-05T01:25:03.035Z,-1.12
2023-02-05T01:27:36.689Z,-1.10
2023-02-05T01:30:11.914Z,-1.11
2023-02-05T01:32:42.839Z,-1.10
2023-02-05T01:35:15.343Z,-1.10
2023-02-05T01:37:48.018Z,-1.06
2023-02-05T01:40:20.722Z,-1.04
2023-02-05T01:42:53.276Z,-1.03
2023-02-05T01:46:08.185Z,-1.05
2023-02-05T01:48:45.313Z,-1.07
2023-02-05T01:51:18.490Z,-1.02
2023-02-05T01:53:51.712Z,-1.03
2023-02-05T01:56:27.537Z,-0.99
2023-02-05T01:59:04.728Z,-0.95
2023-02-05T02:01:38.808Z,-0.90
2023-02-05T02:04:12.749Z,-0.86
2023-02-05T02:06:45.398Z,-0.81
2023-02-05T02:09:17.872Z,-0.75
2023-02-05T02:11:50.579Z,-0.69
2023-02-05T02:14:24.873Z,-0.64
2023-02-05T02:16:58.476Z,-0.60
2023-02-05T02:19:40.064Z,-0.55
2023-02-05T02:22:44.361Z,-0.53
2023-02-05T02:25:46.048Z,-0.49
2023-02-05T02:28:26.381Z,-0.43
2023-02-05T02:31:04.099Z,-0.41
2023-02-05T02:33:43.955Z,-0.40
2023-02-05T02:36:22.854Z,-0.42
2023-02-05T02:39:01.545Z,-0.42
2023-02-05T02:41:41.810Z,-0.43
2023-02-05T02:44:18.487Z,-0.45
2023-02-05T02:46:55.098Z,-0.42
2023-02-05T02:49:34.218Z,-0.40
2023-02-05T02:52:10.352Z,-0.43
2023-02-05T02:54:47.955Z,-0.41
2023-02-05T02:57:24.275Z,-0.41
2023-02-05T03:00:01.566Z,-0.39
2023-02-05T03:02:37.736Z,-0.38
2023-02-05T03:05:15.158Z,-0.39
2023-02-05T03:07:50.990Z,-0.39
2023-02-05T03:10:33.500Z,-0.40
2023-02-05T03:13:06.051Z,-0.35
2023-02-05T03:15:39.551Z,-0.32
2023-02-05T03:18:12.157Z,-0.30
2023-02-05T03:20:49.906Z,-0.24
2023-02-05T03:23:22.531Z,-0.20
2023-02-05T03:25:55.521Z,-0.17
2023-02-05T03:28:33.754Z,-0.14
2023-02-05T03:31:11.980Z,-0.13
2023-02-05T03:33:54.843Z,-0.12
2023-02-05T03:36:40.748Z,-0.16
2023-02-05T03:39:26.720Z,-0.18
2023-02-05T03:42:11.720Z,-0.20
2023-02-05T03:45:16.313Z,-0.19
2023-02-05T03:48:02.462Z,-0.15
2023-02-05T03:50:42.442Z,-0.15
2023-02-05T03:53:23.219Z,-0.12
2023-02-05T03:56:04.759Z,-0.07
2023-02-05T03:58:43.159Z,-0.05
2023-02-05T04:01:16.246Z,-0.02
2023-02-05T04:03:49.895Z,-0.04
2023-02-05T04:06:22.513Z,-0.04
2023-02-05T04:08:55.919Z,-0.01
2023-02-05T04:11:29.496Z,-0.04
2023-02-05T04:14:02.278Z,-0.00
2023-02-05T04:16:34.778Z,0.00
2023-02-05T04:19:08.282Z,0.01
2023-02-05T04:21:40.911Z,-0.03
2023-02-05T04:24:13.459Z,-0.03
2023-02-05T04:26:46.575Z,-0.01
2023-02-05T04:29:19.282Z,-0.05
2023-02-05T04:31:52.707Z,-0.05
2023-02-05T04:34:25.489Z,-0.05
2023-02-05T04:36:58.254Z,-0.05
2023-02-05T04:39:31.827Z,-0.02
2023-02-05T04:42:04.362Z,-0.01
2023-02-05T04:44:36.800Z,0.02
2023-02-05T04:47:09.430Z,0.04
2023-02-05T04:49:42.059Z,0.07
2023-02-05T04:52:14.467Z,0.09
2023-02-05T04:54:46.936Z,0.05
2023-02-05T04:57:19.336Z,0.03
2023-02-05T04:59:51.860Z,-0.01
2023-02-05T05:02:24.675Z,0.01
2023-02-05T05:04:57.195Z,0.03
2023-02-05T05:07:32.537Z,0.06
2023-02-05T05:10:07.337Z,0.08
2023-02-05T05:12:40.282Z,0.11
2023-02-05T05:15:13.235Z,0.15
2023-02-05T05:17:45.716Z,0.12
2023-02-05T05:20:18.677Z,0.13
2023-02-05T05:22:51.208Z,0.14
2023-02-05T05:25:23.986Z,0.10
2023-02-05T05:27:56.535Z,0.10
2023-02-05T05:30:29.093Z,0.09
2023-02-05T05:33:01.596Z,0.08
2023-02-05T05:35:34.981Z,0.10
2023-02-05T05:38:08.299Z,0.11
2023-02-05T05:40:58.408Z,0.09
2023-02-05T05:43:49.625Z,0.10
2023-02-05T05:46:24.633Z,0.09
2023-02-05T05:48:58.613Z,0.07
2023-02-05T05:51:32.781Z,0.07
2023-02-05T05:54:05.408Z,0.06
2023-02-05T05:56:38.415Z,0.02
2023-02-05T05:59:12.502Z,0.04
2023-02-05T06:01:44.927Z,0.06
2023-02-05T06:04:17.408Z,0.06
2023-02-05T06:06:49.811Z,0.09
2023-02-05T06:09:24.116Z,0.09
2023-02-05T06:11:56.528Z,0.09
2023-02-05T06:14:29.047Z,0.09
2023-02-05T06:17:01.559Z,0.09
2023-02-05T06:19:34.340Z,0.11
2023-02-05T06:22:06.857Z,0.10
2023-02-05T06:24:39.302Z,0.10
2023-02-05T06:27:11.852Z,0.12
2023-02-05T06:29:44.330Z,0.14
2023-02-05T06:32:16.882Z,0.14
2023-02-05T06:34:49.306Z,0.17
2023-02-05T06:37:24.959Z,0.21
2023-02-05T06:39:57.482Z,0.24
2023-02-05T06:42:29.883Z,0.25
2023-02-05T06:45:02.432Z,0.25
2023-02-05T06:47:34.782Z,0.23
2023-02-05T06:50:08.220Z,0.24
2023-02-05T06:52:40.756Z,0.24
2023-02-05T06:55:13.465Z,0.23
2023-02-05T06:57:46.046Z,0.26
2023-02-05T07:00:19.541Z,0.23
2023-02-05T07:02:53.308Z,0.27
2023-02-05T07:05:25.952Z,0.32
2023-02-05T07:07:58.456Z,0.34
2023-02-05T07:10:30.968Z,0.33
2023-02-05T07:13:05.739Z,0.36
2023-02-05T07:15:39.660Z,0.40
2023-02-05T07:18:12.125Z,0.44
2023-02-05T07:20:44.574Z,0.43
2023-02-05T07:23:16.978Z,0.49
2023-02-05T07:25:49.523Z,0.52
2023-02-05T07:28:22.026Z,0.54
2023-02-05T07:30:55.596Z,0.52
2023-02-05T07:33:28.010Z,0.53
2023-02-05T07:36:03.162Z,0.53
2023-02-05T07:38:34.748Z,0.52
2023-02-05T07:41:08.391Z,0.50
2023-02-05T07:43:41.458Z,0.54
2023-02-05T07:46:15.687Z,0.57
2023-02-05T07:48:48.082Z,0.54
2023-02-05T07:51:24.616Z,0.59
2023-02-05T07:53:57.037Z,0.59
2023-02-05T07:56:29.410Z,0.59
2023-02-05T07:59:01.900Z,0.61
2023-02-05T08:01:34.360Z,0.66
2023-02-05T08:04:06.999Z,0.69
2023-02-05T08:06:39.566Z,0.74
2023-02-05T08:09:14.453Z,0.81
2023-02-05T08:11:46.952Z,0.86
2023-02-05T08:14:19.349Z,0.94
2023-02-05T08:16:51.775Z,0.95
2023-02-05T08:19:24.207Z,0.99
2023-02-05T08:21:56.646Z,1.06
2023-02-05T08:24:29.208Z,1.10
2023-02-05T08:27:01.777Z,1.13
2023-02-05T08:29:34.154Z,1.16
2023-02-05T08:32:08.661Z,1.17
2023-02-05T08:34:41.099Z,1.21
2023-02-05T08:37:13.859Z,1.24
2023-02-05T08:39:46.537Z,1.27
2023-02-05T08:42:19.120Z,1.30
2023-02-05T08:44:51.794Z,1.32
2023-02-05T08:47:25.124Z,1.32
2023-02-05T08:49:57.898Z,1.32
2023-02-05T08:52:30.424Z,1.29
2023-02-05T08:55:02.978Z,1.27
2023-02-05T08:57:35.456Z,1.22
2023-02-05T09:00:09.566Z,1.14
2023-02-05T09:02:44.140Z,1.12
2023-02-05T09:05:16.627Z,1.15
2023-02-05T09:07:49.064Z,1.16
2023-02-05T09:10:21.628Z,1.19
2023-02-05T09:12:54.118Z,1.19
2023-02-05T09:15:26.726Z,1.24
2023-02-05T09:17:59.176Z,1.27
2023-02-05T09:20:31.625Z,1.29
2023-02-05T09:23:04.309Z,1.34
2023-02-05T09:25:37.783Z,1.36
2023-02-05T09:28:11.733Z,1.39
2023-02-05T09:30:46.872Z,1.41
2023-02-05T09:33:17.767Z,1.46
2023-02-05T09:35:50.199Z,1.52
2023-02-05T09:38:22.665Z,1.57
2023-02-05T09:40:59.927Z,1.61
2023-02-05T09:43:45.308Z,1.63
2023-02-05T09:46:25.812Z,1.67
2023-02-05T09:49:03.216Z,1.71
2023-02-05T09:51:38.819Z,1.75
2023-02-05T09:54:17.839Z,1.81
2023-02-05T09:56:52.629Z,1.87
2023-02-05T09:59:27.577Z,1.90
2023-02-05T10:02:02.970Z,1.91
2023-02-05T10:04:36.850Z,1.94
2023-02-05T10:07:31.551Z,2.00
2023-02-05T10:10:22.749Z,2.09
2023-02-05T10:13:23.705Z,2.14
2023-02-05T10:16:31.150Z,2.21
2023-02-05T10:19:48.480Z,2.25
2023-02-05T10:22:27.939Z,2.30
2023-02-05T10:25:16.929Z,2.34
2023-02-05T10:27:59.372Z,2.40
2023-02-05T10:30:38.383Z,2.44
2023-02-05T10:33:20.220Z,2.46
2023-02-05T10:36:01.525Z,2.51
2023-02-05T10:38:37.942Z,2.53
2023-02-05T10:41:27.670Z,2.55
2023-02-05T10:44:06.109Z,2.59
2023-02-05T10:46:41.306Z,2.60
2023-02-05T10:49:16.874Z,2.68
2023-02-05T10:51:50.124Z,2.72
2023-02-05T10:54:28.033Z,2.77
2023-02-05T10:57:01.954Z,2.82
2023-02-05T10:59:37.586Z,2.87
2023-02-05T11:02:12.409Z,2.91
2023-02-05T11:04:48.608Z,2.94
2023-02-05T11:07:26.217Z,2.98
2023-02-05T11:10:14.024Z,3.03
2023-02-05T11:12:49.729Z,3.07
2023-02-05T11:15:25.460Z,3.08
2023-02-05T11:18:02.719Z,3.08
2023-02-05T11:20:38.402Z,3.08
2023-02-05T11:23:19.314Z,3.10
2023-02-05T11:25:56.822Z,3.12
2023-02-05T11:28:33.030Z,3.13
2023-02-05T11:31:25.523Z,3.13
2023-02-05T11:34:16.272Z,3.19
2023-02-05T11:36:54.922Z,3.27
2023-02-05T11:39:36.548Z,3.34
2023-02-05T11:42:19.353Z,3.37
2023-02-05T11:44:54.793Z,3.41
2023-02-05T11:47:32.472Z,3.42
2023-02-05T11:50:06.567Z,3.46
2023-02-05T11:52:40.527Z,3.48
2023-02-05T11:55:29.144Z,3.47
2023-02-05T11:58:07.412Z,3.51
2023-02-05T12:00:51.135Z,3.55
2023-02-05T12:03:24.467Z,3.58
2023-02-05T12:06:04.594Z,3.61
2023-02-05T12:08:44.268Z,3.63
2023-02-05T12:11:31.230Z,3.64
2023-02-05T12:14:12.535Z,3.65
2023-02-05T12:16:52.657Z,3.68
2023-02-05T12:19:33.294Z,3.69
2023-02-05T12:22:17.875Z,3.69
2023-02-05T12:24:59.767Z,3.72
2023-02-05T12:27:49.595Z,3.76
2023-02-05T12:30:39.800Z,3.79
2023-02-05T12:33:28.429Z,3.83
2023-02-05T12:36:11.940Z,3.88
2023-02-05T12:38:58.681Z,3.90
2023-02-05T12:41:42.600Z,3.91
2023-02-05T12:44:27.600Z,3.94
2023-02-05T12:47:14.366Z,3.94
2023-02-05T12:50:12.206Z,3.95
2023-02-05T12:53:12.610Z,4.07
2023-02-05T12:56:00.288Z,4.32
2023-02-05T12:58:41.007Z,4.49
2023-02-05T13:01:21.165Z,4.55
2023-02-05T13:04:00.864Z,4.55
2023-02-05T13:06:38.048Z,4.47
2023-02-05T13:09:17.716Z,4.42
2023-02-05T13:11:57.334Z,4.35
2023-02-05T13:14:35.672Z,4.27
2023-02-05T13:17:13.346Z,4.21
2023-02-05T13:19:50.968Z,4.14
2023-02-05T13:22:45.171Z,4.09
2023-02-05T13:25:44.160Z,4.03
2023-02-05T13:28:43.866Z,3.99
2023-02-05T13:31:25.733Z,3.93
2023-02-05T13:34:04.693Z,3.85
2023-02-05T13:37:13.052Z,3.80
2023-02-05T13:40:05.373Z,3.75
2023-02-05T13:43:02.425Z,3.69
2023-02-05T13:46:06.234Z,3.62
2023-02-05T13:49:22.554Z,3.57
2023-02-05T13:52:18.797Z,3.53
2023-02-05T13:55:16.902Z,3.50
2023-02-05T13:58:12.311Z,3.46
2023-02-05T14:00:50.867Z,3.40
2023-02-05T14:03:35.303Z,3.38
2023-02-05T14:06:23.032Z,3.36
2023-02-05T14:09:05.652Z,3.30
2023-02-05T14:11:53.982Z,3.27
2023-02-05T14:14:30.140Z,3.26
2023-02-05T14:17:04.378Z,3.23
2023-02-05T14:20:01.276Z,3.19
2023-02-05T14:22:40.210Z,3.12
2023-02-05T14:26:02.170Z,3.08
2023-02-05T14:28:52.769Z,3.01
2023-02-05T14:31:48.644Z,2.94
2023-02-05T14:34:51.376Z,2.87
2023-02-05T14:37:31.304Z,2.80
2023-02-05T14:40:22.215Z,2.76
2023-02-05T14:43:09.690Z,2.71
2023-02-05T14:45:49.235Z,2.67
2023-02-05T14:48:26.870Z,2.64
2023-02-05T14:51:18.502Z,2.62
2023-02-05T14:54:00.930Z,2.57
2023-02-05T14:56:40.211Z,2.53
2023-02-05T14:59:24.752Z,2.49
2023-02-05T15:01:57.557Z,2.42
2023-02-05T15:04:41.938Z,2.37
2023-02-05T15:07:21.113Z,2.34
2023-02-05T15:09:58.957Z,2.30
2023-02-05T15:12:49.320Z,2.23
2023-02-05T15:15:33.703Z,2.16
2023-02-05T15:18:16.327Z,2.10
2023-02-05T15:20:52.852Z,2.03
2023-02-05T15:23:35.156Z,1.97
2023-02-05T15:26:16.030Z,1.89
2023-02-05T15:28:57.363Z,1.81
2023-02-05T15:31:35.846Z,1.76
2023-02-05T15:34:30.661Z,1.71
2023-02-05T15:37:06.842Z,1.66
2023-02-05T15:39:48.768Z,1.60
2023-02-05T15:42:25.336Z,1.60
2023-02-05T15:44:57.765Z,1.55
2023-02-05T15:47:30.561Z,1.48
2023-02-05T15:50:05.463Z,1.44
2023-02-05T15:52:38.697Z,1.38
2023-02-05T15:55:17.778Z,1.33
2023-02-05T15:57:50.699Z,1.29
2023-02-05T16:00:27.346Z,1.25
2023-02-05T16:03:02.591Z,1.22
2023-02-05T16:05:36.593Z,1.17
2023-02-05T16:08:28.202Z,1.10
2023-02-05T16:11:05.471Z,1.06
2023-02-05T16:13:37.927Z,1.03
2023-02-05T16:16:18.418Z,1.01
2023-02-05T16:18:57.443Z,0.95
2023-02-05T16:21:34.043Z,0.87
2023-02-05T16:24:10.723Z,0.82
2023-02-05T16:26:47.806Z,0.79
2023-02-05T16:29:31.510Z,0.77
2023-02-05T16:32:15.654Z,0.75
2023-02-05T16:34:48.616Z,0.73
2023-02-05T16:37:23.884Z,0.70
2023-02-05T16:39:56.062Z,0.67
2023-02-05T16:42:38.224Z,0.63
2023-02-05T16:45:31.658Z,0.63
2023-02-05T16:48:26.361Z,0.60
2023-02-05T16:50:59.989Z,0.59
2023-02-05T16:53:35.103Z,0.55
2023-02-05T16:56:12.652Z,0.51
2023-02-05T16:58:50.703Z,0.47
2023-02-05T17:01:29.066Z,0.46
2023-02-05T17:04:01.748Z,0.42
2023-02-05T17:06:38.244Z,0.42
2023-02-05T17:09:30.561Z,0.41
2023-02-05T17:12:33.888Z,0.41
2023-02-05T17:15:27.560Z,0.37
2023-02-05T17:18:06.489Z,0.34
2023-02-05T17:20:40.701Z,0.32
2023-02-05T17:23:14.727Z,0.29
2023-02-05T17:25:55.221Z,0.30
2023-02-05T17:28:29.984Z,0.30
2023-02-05T17:31:02.495Z,0.29
2023-02-05T17:33:35.104Z,0.28
2023-02-05T17:36:09.957Z,0.25
2023-02-05T17:38:42.317Z,0.24
2023-02-05T17:41:36.579Z,0.24
2023-02-05T17:44:11.405Z,0.24
2023-02-05T17:46:44.394Z,0.23
2023-02-05T17:49:16.953Z,0.20
2023-02-05T17:51:49.453Z,0.18
2023-02-05T17:54:25.562Z,0.20
2023-02-05T17:57:03.039Z,0.20
2023-02-05T17:59:35.663Z,0.17
2023-02-05T18:02:08.397Z,0.15
2023-02-05T18:04:41.312Z,0.14
2023-02-05T18:07:21.668Z,0.10
2023-02-05T18:09:54.112Z,0.10
2023-02-05T18:12:27.047Z,0.11
2023-02-05T18:14:59.601Z,0.14
2023-02-05T18:17:32.046Z,0.14
2023-02-05T18:20:05.092Z,0.14
2023-02-05T18:22:37.960Z,0.16
2023-02-05T18:25:11.272Z,0.16
2023-02-05T18:27:43.808Z,0.14
2023-02-05T18:30:17.285Z,0.16
2023-02-05T18:32:50.034Z,0.17
2023-02-05T18:35:22.586Z,0.19
2023-02-05T18:37:55.136Z,0.24
2023-02-05T18:40:27.582Z,0.36
2023-02-05T18:43:00.545Z,0.46
2023-02-05T18:45:32.962Z,0.59
2023-02-05T18:48:05.416Z,0.68
2023-02-05T18:50:37.939Z,0.76
2023-02-05T18:53:10.466Z,0.83
2023-02-05T18:55:42.913Z,0.86
2023-02-05T18:58:15.436Z,0.82
2023-02-05T19:00:47.815Z,0.75
2023-02-05T19:03:20.327Z,0.68
2023-02-05T19:05:53.303Z,0.58
2023-02-05T19:08:26.059Z,0.50
2023-02-05T19:10:58.893Z,0.46
2023-02-05T19:13:31.498Z,0.43
2023-02-05T19:16:11.593Z,0.38
2023-02-05T19:18:45.709Z,0.35
2023-02-05T19:21:20.465Z,0.31
2023-02-05T19:23:55.893Z,0.27
2023-02-05T19:26:30.105Z,0.26
2023-02-05T19:29:05.187Z,0.26
2023-02-05T19:31:39.977Z,0.24
2023-02-05T19:34:12.979Z,0.22
2023-02-05T19:36:45.846Z,0.18
2023-02-05T19:39:18.544Z,0.16
2023-02-05T19:41:51.989Z,0.17
2023-02-05T19:44:26.574Z,0.17
2023-02-05T19:46:58.900Z,0.15
2023-02-05T19:49:31.481Z,0.12
2023-02-05T19:52:04.257Z,0.12
2023-02-05T19:54:36.858Z,0.12
2023-02-05T19:57:09.538Z,0.10
2023-02-05T19:59:41.932Z,0.10
2023-02-05T20:02:19.358Z,0.10
2023-02-05T20:04:52.393Z,0.10
2023-02-05T20:07:24.818Z,0.09
2023-02-05T20:09:57.375Z,0.04
2023-02-05T20:12:30.019Z,0.02
2023-02-05T20:15:02.809Z,0.07
2023-02-05T20:17:35.386Z,0.04
2023-02-05T20:20:22.216Z,0.01
2023-02-05T20:23:01.031Z,-0.01
2023-02-05T20:25:33.698Z,-0.01
2023-02-05T20:28:06.782Z,-0.02
2023-02-05T20:31:00.238Z,-0.03
2023-02-05T20:33:32.963Z,-0.03
2023-02-05T20:36:11.290Z,-0.03
2023-02-05T20:38:43.953Z,-0.05
2023-02-05T20:41:18.548Z,-0.07
2023-02-05T20:43:51.814Z,-0.08
2023-02-05T20:46:24.958Z,-0.08
2023-02-05T20:48:57.412Z,-0.10
2023-02-05T20:51:30.510Z,-0.10
2023-02-05T20:54:03.233Z,-0.09
2023-02-05T20:56:36.073Z,-0.08
2023-02-05T20:59:10.976Z,-0.06
2023-02-05T21:01:43.488Z,-0.02
2023-02-05T21:04:16.184Z,-0.03
2023-02-05T21:06:49.580Z,-0.02
2023-02-05T21:09:22.748Z,-0.03
2023-02-05T21:11:55.739Z,-0.05
2023-02-05T21:14:28.497Z,-0.03
2023-02-05T21:17:02.757Z,-0.03
2023-02-05T21:19:35.413Z,-0.08
2023-02-05T21:22:07.968Z,-0.11
2023-02-05T21:24:41.421Z,-0.11
2023-02-05T21:27:13.849Z,-0.11
2023-02-05T21:29:46.431Z,-0.10
2023-02-05T21:32:19.541Z,-0.11
2023-02-05T21:34:52.365Z,-0.14
2023-02-05T21:37:25.055Z,-0.23
2023-02-05T21:40:08.368Z,-0.23
2023-02-05T21:42:41.823Z,-0.19
2023-02-05T21:45:14.554Z,-0.21
2023-02-05T21:47:47.029Z,-0.25
2023-02-05T21:50:20.054Z,-0.24
2023-02-05T21:52:55.087Z,-0.24
2023-02-05T21:55:27.580Z,-0.26
2023-02-05T21:58:00.162Z,-0.28
2023-02-05T22:00:32.828Z,-0.32
2023-02-05T22:03:05.653Z,-0.34
2023-02-05T22:05:38.432Z,-0.34
2023-02-05T22:08:12.040Z,-0.34
2023-02-05T22:10:44.613Z,-0.34
2023-02-05T22:13:17.397Z,-0.35
2023-02-05T22:15:50.102Z,-0.36
2023-02-05T22:18:22.678Z,-0.36
2023-02-05T22:20:55.132Z,-0.32
2023-02-05T22:23:27.637Z,-0.31
2023-02-05T22:26:00.440Z,-0.33
2023-02-05T22:28:33.349Z,-0.34
2023-02-05T22:31:07.736Z,-0.31
2023-02-05T22:33:41.806Z,-0.33
2023-02-05T22:36:16.872Z,-0.33
2023-02-05T22:38:48.014Z,-0.30
2023-02-05T22:41:23.226Z,-0.33
2023-02-05T22:43:54.676Z,-0.35
2023-02-05T22:46:29.405Z,-0.34
2023-02-05T22:49:03.441Z,-0.33
2023-02-05T22:51:38.016Z,-0.32
2023-02-05T22:54:13.610Z,-0.33
2023-02-05T22:56:46.578Z,-0.32
2023-02-05T22:59:19.209Z,-0.31
2023-02-05T23:01:51.884Z,-0.32
2023-02-05T23:04:24.897Z,-0.32
2023-02-05T23:06:57.546Z,-0.31
2023-02-05T23:09:30.060Z,-0.31
2023-02-05T23:12:03.356Z,-0.30
2023-02-05T23:14:36.333Z,-0.27
2023-02-05T23:17:08.928Z,-0.24
2023-02-05T23:19:41.299Z,-0.26
2023-02-05T23:22:13.836Z,-0.27
2023-02-05T23:24:47.231Z,-0.27
2023-02-05T23:27:19.811Z,-0.26
2023-02-05T23:29:52.473Z,-0.23
2023-02-05T23:32:25.097Z,-0.23
2023-02-05T23:34:57.825Z,-0.20
2023-02-05T23:37:30.685Z,-0.16
2023-02-05T23:40:03.163Z,-0.19
2023-02-05T23:42:35.794Z,-0.21
2023-02-05T23:45:10.558Z,-0.21
2023-02-05T23:47:43.125Z,-0.20
2023-02-05T23:50:15.477Z,-0.18
2023-02-05T23:52:48.026Z,-0.16
2023-02-05T23:55:21.066Z,-0.17
2023-02-05T23:57:53.772Z,-0.16
